sensor_id;sensor_type;location;lat;lon;timestamp;P1;durP1;ratioP1;P2;durP2;ratioP2
21206;SDS011;10761;48.532;8.026;2023-11-21T00:02:21;5.43;;;1.10;;
21206;SDS011;10761;48.532;8.026;2023-11-21T00:04:50;5.60;;;1.20;;
21206;SDS011;10761;48.532;8.026;2023-11-21T00:07:17;5.05;;;1.15;;
21206;SDS011;10761;48.532;8.026;2023-11-21T00:09:42;4.13;;;1.15;;
21206;SDS011;10761;48.532;8.026;2023-11-21T00:12:08;5.75;;;1.48;;
21206;SDS011;10761;48.532;8.026;2023-11-21T00:14:37;6.70;;;1.10;;
21206;SDS011;10761;48.532;8.026;2023-11-21T00:17:03;6.72;;;1.10;;
21206;SDS011;10761;48.532;8.026;2023-11-21T00:19:30;4.68;;;1.00;;
21206;SDS011;10761;48.532;8.026;2023-11-21T00:21:56;4.90;;;1.02;;
21206;SDS011;10761;48.532;8.026;2023-11-21T00:24:23;9.68;;;1.30;;
21206;SDS011;10761;48.532;8.026;2023-11-21T00:26:49;6.50;;;1.35;;
21206;SDS011;10761;48.532;8.026;2023-11-21T00:29:15;6.60;;;1.30;;
21206;SDS011;10761;48.532;8.026;2023-11-21T00:31:42;4.03;;;1.02;;
21206;SDS011;10761;48.532;8.026;2023-11-21T00:34:08;9.00;;;1.20;;
21206;SDS011;10761;48.532;8.026;2023-11-21T00:36:34;3.22;;;0.90;;
21206;SDS011;10761;48.532;8.026;2023-11-21T00:39:00;4.38;;;1.02;;
21206;SDS011;10761;48.532;8.026;2023-11-21T00:41:27;8.82;;;1.30;;
21206;SDS011;10761;48.532;8.026;2023-11-21T00:43:53;7.55;;;1.10;;
21206;SDS011;10761;48.532;8.026;2023-11-21T00:46:20;4.63;;;1.23;;
21206;SDS011;10761;48.532;8.026;2023-11-21T00:48:46;4.15;;;0.90;;
21206;SDS011;10761;48.532;8.026;2023-11-21T00:51:11;2.55;;;0.95;;
21206;SDS011;10761;48.532;8.026;2023-11-21T00:53:37;4.25;;;1.00;;
21206;SDS011;10761;48.532;8.026;2023-11-21T00:56:02;6.13;;;1.10;;
21206;SDS011;10761;48.532;8.026;2023-11-21T00:58:28;7.55;;;1.33;;
21206;SDS011;10761;48.532;8.026;2023-11-21T01:00:55;4.20;;;1.15;;
21206;SDS011;10761;48.532;8.026;2023-11-21T01:03:21;3.47;;;1.00;;
21206;SDS011;10761;48.532;8.026;2023-11-21T01:05:46;5.40;;;0.88;;
21206;SDS011;10761;48.532;8.026;2023-11-21T01:08:15;5.15;;;1.05;;
21206;SDS011;10761;48.532;8.026;2023-11-21T01:10:41;4.45;;;0.90;;
21206;SDS011;10761;48.532;8.026;2023-11-21T01:13:06;5.53;;;1.25;;
21206;SDS011;10761;48.532;8.026;2023-11-21T01:15:32;4.97;;;0.75;;
21206;SDS011;10761;48.532;8.026;2023-11-21T01:17:58;3.50;;;0.80;;
21206;SDS011;10761;48.532;8.026;2023-11-21T01:20:24;4.10;;;0.80;;
21206;SDS011;10761;48.532;8.026;2023-11-21T01:22:50;4.20;;;1.02;;
21206;SDS011;10761;48.532;8.026;2023-11-21T01:25:15;4.32;;;0.93;;
21206;SDS011;10761;48.532;8.026;2023-11-21T01:27:41;2.10;;;0.73;;
21206;SDS011;10761;48.532;8.026;2023-11-21T01:30:08;2.60;;;0.80;;
21206;SDS011;10761;48.532;8.026;2023-11-21T01:32:35;2.72;;;0.68;;
21206;SDS011;10761;48.532;8.026;2023-11-21T01:35:02;4.00;;;1.15;;
21206;SDS011;10761;48.532;8.026;2023-11-21T01:37:30;5.90;;;1.05;;
21206;SDS011;10761;48.532;8.026;2023-11-21T01:39:56;2.92;;;0.70;;
21206;SDS011;10761;48.532;8.026;2023-11-21T01:42:22;3.17;;;0.90;;
21206;SDS011;10761;48.532;8.026;2023-11-21T01:44:47;3.28;;;0.80;;
21206;SDS011;10761;48.532;8.026;2023-11-21T01:47:13;1.90;;;0.70;;
21206;SDS011;10761;48.532;8.026;2023-11-21T01:49:40;4.00;;;0.80;;
21206;SDS011;10761;48.532;8.026;2023-11-21T01:52:09;3.17;;;0.90;;
21206;SDS011;10761;48.532;8.026;2023-11-21T01:54:36;4.22;;;0.90;;
21206;SDS011;10761;48.532;8.026;2023-11-21T01:57:02;2.35;;;0.77;;
21206;SDS011;10761;48.532;8.026;2023-11-21T01:59:33;2.65;;;0.80;;
21206;SDS011;10761;48.532;8.026;2023-11-21T02:02:06;2.70;;;0.80;;
21206;SDS011;10761;48.532;8.026;2023-11-21T02:04:35;3.63;;;0.80;;
21206;SDS011;10761;48.532;8.026;2023-11-21T02:07:02;4.90;;;0.90;;
21206;SDS011;10761;48.532;8.026;2023-11-21T02:09:31;2.00;;;0.80;;
21206;SDS011;10761;48.532;8.026;2023-11-21T02:11:58;4.43;;;1.10;;
21206;SDS011;10761;48.532;8.026;2023-11-21T02:14:24;4.07;;;0.80;;
21206;SDS011;10761;48.532;8.026;2023-11-21T02:16:51;2.58;;;0.80;;
21206;SDS011;10761;48.532;8.026;2023-11-21T02:19:19;3.17;;;0.93;;
21206;SDS011;10761;48.532;8.026;2023-11-21T02:21:49;3.47;;;1.00;;
21206;SDS011;10761;48.532;8.026;2023-11-21T02:24:17;2.70;;;0.70;;
21206;SDS011;10761;48.532;8.026;2023-11-21T02:26:46;2.35;;;0.73;;
21206;SDS011;10761;48.532;8.026;2023-11-21T02:29:18;4.60;;;1.02;;
21206;SDS011;10761;48.532;8.026;2023-11-21T02:31:47;2.80;;;0.80;;
21206;SDS011;10761;48.532;8.026;2023-11-21T02:34:14;5.35;;;1.10;;
21206;SDS011;10761;48.532;8.026;2023-11-21T02:36:40;4.47;;;0.95;;
21206;SDS011;10761;48.532;8.026;2023-11-21T02:39:08;3.53;;;0.80;;
21206;SDS011;10761;48.532;8.026;2023-11-21T02:41:34;3.38;;;0.80;;
21206;SDS011;10761;48.532;8.026;2023-11-21T02:44:00;4.18;;;1.00;;
21206;SDS011;10761;48.532;8.026;2023-11-21T02:46:26;3.05;;;0.80;;
21206;SDS011;10761;48.532;8.026;2023-11-21T02:48:51;3.65;;;0.88;;
21206;SDS011;10761;48.532;8.026;2023-11-21T02:51:19;2.90;;;0.77;;
21206;SDS011;10761;48.532;8.026;2023-11-21T02:53:45;2.15;;;0.70;;
21206;SDS011;10761;48.532;8.026;2023-11-21T02:56:11;3.83;;;0.77;;
21206;SDS011;10761;48.532;8.026;2023-11-21T02:58:37;2.00;;;0.70;;
21206;SDS011;10761;48.532;8.026;2023-11-21T03:01:06;2.85;;;0.95;;
21206;SDS011;10761;48.532;8.026;2023-11-21T03:03:33;3.08;;;0.77;;
21206;SDS011;10761;48.532;8.026;2023-11-21T03:05:58;3.90;;;1.00;;
21206;SDS011;10761;48.532;8.026;2023-11-21T03:08:24;3.88;;;0.90;;
21206;SDS011;10761;48.532;8.026;2023-11-21T03:10:50;2.83;;;0.90;;
21206;SDS011;10761;48.532;8.026;2023-11-21T03:13:15;3.30;;;0.95;;
21206;SDS011;10761;48.532;8.026;2023-11-21T03:15:41;3.83;;;0.82;;
21206;SDS011;10761;48.532;8.026;2023-11-21T03:18:07;3.08;;;0.90;;
21206;SDS011;10761;48.532;8.026;2023-11-21T03:20:33;4.55;;;1.10;;
21206;SDS011;10761;48.532;8.026;2023-11-21T03:22:59;3.60;;;0.95;;
21206;SDS011;10761;48.532;8.026;2023-11-21T03:25:25;5.68;;;0.98;;
21206;SDS011;10761;48.532;8.026;2023-11-21T03:27:51;4.57;;;1.08;;
21206;SDS011;10761;48.532;8.026;2023-11-21T03:30:17;6.47;;;1.40;;
21206;SDS011;10761;48.532;8.026;2023-11-21T03:32:42;4.07;;;1.10;;
21206;SDS011;10761;48.532;8.026;2023-11-21T03:35:08;3.53;;;1.25;;
21206;SDS011;10761;48.532;8.026;2023-11-21T03:37:34;3.35;;;1.27;;
21206;SDS011;10761;48.532;8.026;2023-11-21T03:40:00;4.30;;;1.23;;
21206;SDS011;10761;48.532;8.026;2023-11-21T03:42:25;2.63;;;1.15;;
21206;SDS011;10761;48.532;8.026;2023-11-21T03:44:51;4.68;;;1.00;;
21206;SDS011;10761;48.532;8.026;2023-11-21T03:47:17;2.95;;;0.80;;
21206;SDS011;10761;48.532;8.026;2023-11-21T03:49:44;4.25;;;0.93;;
21206;SDS011;10761;48.532;8.026;2023-11-21T03:52:10;4.70;;;1.00;;
21206;SDS011;10761;48.532;8.026;2023-11-21T03:54:36;5.93;;;1.15;;
21206;SDS011;10761;48.532;8.026;2023-11-21T03:57:02;3.72;;;0.82;;
21206;SDS011;10761;48.532;8.026;2023-11-21T03:59:28;4.32;;;1.02;;
21206;SDS011;10761;48.532;8.026;2023-11-21T04:01:57;4.00;;;1.20;;
21206;SDS011;10761;48.532;8.026;2023-11-21T04:04:22;4.75;;;0.80;;
21206;SDS011;10761;48.532;8.026;2023-11-21T04:06:48;3.78;;;0.98;;
21206;SDS011;10761;48.532;8.026;2023-11-21T04:09:14;3.47;;;1.00;;
21206;SDS011;10761;48.532;8.026;2023-11-21T04:11:39;4.72;;;1.45;;
21206;SDS011;10761;48.532;8.026;2023-11-21T04:14:05;5.13;;;1.00;;
21206;SDS011;10761;48.532;8.026;2023-11-21T04:16:31;3.60;;;0.90;;
21206;SDS011;10761;48.532;8.026;2023-11-21T04:18:56;2.83;;;0.90;;
21206;SDS011;10761;48.532;8.026;2023-11-21T04:21:22;5.57;;;1.17;;
21206;SDS011;10761;48.532;8.026;2023-11-21T04:23:49;3.75;;;0.93;;
21206;SDS011;10761;48.532;8.026;2023-11-21T04:26:14;5.57;;;1.10;;
21206;SDS011;10761;48.532;8.026;2023-11-21T04:28:40;6.85;;;1.27;;
21206;SDS011;10761;48.532;8.026;2023-11-21T04:31:05;3.67;;;1.08;;
21206;SDS011;10761;48.532;8.026;2023-11-21T04:33:32;4.45;;;1.00;;
21206;SDS011;10761;48.532;8.026;2023-11-21T04:35:58;7.50;;;1.10;;
21206;SDS011;10761;48.532;8.026;2023-11-21T04:38:23;3.65;;;1.00;;
21206;SDS011;10761;48.532;8.026;2023-11-21T04:40:49;3.67;;;1.05;;
21206;SDS011;10761;48.532;8.026;2023-11-21T04:43:15;3.22;;;1.00;;
21206;SDS011;10761;48.532;8.026;2023-11-21T04:45:40;4.43;;;0.98;;
21206;SDS011;10761;48.532;8.026;2023-11-21T04:48:06;4.13;;;0.93;;
21206;SDS011;10761;48.532;8.026;2023-11-21T04:50:33;3.08;;;0.90;;
21206;SDS011;10761;48.532;8.026;2023-11-21T04:52:59;6.47;;;1.23;;
21206;SDS011;10761;48.532;8.026;2023-11-21T04:55:25;4.68;;;1.10;;
21206;SDS011;10761;48.532;8.026;2023-11-21T04:57:53;2.78;;;0.95;;
21206;SDS011;10761;48.532;8.026;2023-11-21T05:00:18;4.10;;;1.20;;
21206;SDS011;10761;48.532;8.026;2023-11-21T05:02:46;3.28;;;1.20;;
21206;SDS011;10761;48.532;8.026;2023-11-21T05:05:12;3.28;;;1.10;;
21206;SDS011;10761;48.532;8.026;2023-11-21T05:07:38;5.22;;;1.05;;
21206;SDS011;10761;48.532;8.026;2023-11-21T05:10:05;5.03;;;1.00;;
21206;SDS011;10761;48.532;8.026;2023-11-21T05:12:36;4.45;;;0.95;;
21206;SDS011;10761;48.532;8.026;2023-11-21T05:15:06;2.40;;;0.90;;
21206;SDS011;10761;48.532;8.026;2023-11-21T05:17:39;3.20;;;1.00;;
21206;SDS011;10761;48.532;8.026;2023-11-21T05:20:07;4.25;;;1.70;;
21206;SDS011;10761;48.532;8.026;2023-11-21T05:22:35;5.68;;;1.10;;
21206;SDS011;10761;48.532;8.026;2023-11-21T05:25:01;2.50;;;1.17;;
21206;SDS011;10761;48.532;8.026;2023-11-21T05:27:28;6.40;;;1.38;;
21206;SDS011;10761;48.532;8.026;2023-11-21T05:29:55;3.80;;;1.23;;
21206;SDS011;10761;48.532;8.026;2023-11-21T05:32:20;4.20;;;1.63;;
21206;SDS011;10761;48.532;8.026;2023-11-21T05:34:46;6.53;;;1.80;;
21206;SDS011;10761;48.532;8.026;2023-11-21T05:37:12;3.33;;;1.20;;
21206;SDS011;10761;48.532;8.026;2023-11-21T05:39:37;4.10;;;1.33;;
21206;SDS011;10761;48.532;8.026;2023-11-21T05:42:03;4.25;;;1.13;;
21206;SDS011;10761;48.532;8.026;2023-11-21T05:44:29;6.63;;;1.40;;
21206;SDS011;10761;48.532;8.026;2023-11-21T05:46:55;4.25;;;1.25;;
21206;SDS011;10761;48.532;8.026;2023-11-21T05:49:20;2.85;;;1.20;;
21206;SDS011;10761;48.532;8.026;2023-11-21T05:51:46;7.13;;;1.40;;
21206;SDS011;10761;48.532;8.026;2023-11-21T05:54:12;2.20;;;0.95;;
21206;SDS011;10761;48.532;8.026;2023-11-21T05:56:38;3.30;;;0.90;;
21206;SDS011;10761;48.532;8.026;2023-11-21T05:59:03;3.63;;;1.20;;
21206;SDS011;10761;48.532;8.026;2023-11-21T06:01:29;4.32;;;0.90;;
21206;SDS011;10761;48.532;8.026;2023-11-21T06:03:54;2.03;;;0.82;;
21206;SDS011;10761;48.532;8.026;2023-11-21T06:06:20;4.97;;;0.98;;
21206;SDS011;10761;48.532;8.026;2023-11-21T06:08:48;4.78;;;1.08;;
21206;SDS011;10761;48.532;8.026;2023-11-21T06:11:14;2.47;;;0.82;;
21206;SDS011;10761;48.532;8.026;2023-11-21T06:13:41;1.88;;;1.20;;
21206;SDS011;10761;48.532;8.026;2023-11-21T06:16:07;6.43;;;1.20;;
21206;SDS011;10761;48.532;8.026;2023-11-21T06:18:33;3.50;;;1.02;;
21206;SDS011;10761;48.532;8.026;2023-11-21T06:21:00;4.07;;;1.10;;
21206;SDS011;10761;48.532;8.026;2023-11-21T06:23:25;5.30;;;1.15;;
21206;SDS011;10761;48.532;8.026;2023-11-21T06:25:51;2.63;;;0.90;;
21206;SDS011;10761;48.532;8.026;2023-11-21T06:28:17;5.32;;;1.20;;
21206;SDS011;10761;48.532;8.026;2023-11-21T06:30:43;3.08;;;1.05;;
21206;SDS011;10761;48.532;8.026;2023-11-21T06:33:10;3.45;;;1.10;;
21206;SDS011;10761;48.532;8.026;2023-11-21T06:35:36;3.45;;;1.20;;
21206;SDS011;10761;48.532;8.026;2023-11-21T06:38:01;4.15;;;1.33;;
21206;SDS011;10761;48.532;8.026;2023-11-21T06:40:28;8.95;;;1.30;;
21206;SDS011;10761;48.532;8.026;2023-11-21T06:42:53;2.72;;;1.17;;
21206;SDS011;10761;48.532;8.026;2023-11-21T06:45:19;5.35;;;1.92;;
21206;SDS011;10761;48.532;8.026;2023-11-21T06:47:47;3.55;;;1.50;;
21206;SDS011;10761;48.532;8.026;2023-11-21T06:50:13;3.25;;;1.30;;
21206;SDS011;10761;48.532;8.026;2023-11-21T06:52:39;3.10;;;1.33;;
21206;SDS011;10761;48.532;8.026;2023-11-21T06:55:05;2.60;;;1.10;;
21206;SDS011;10761;48.532;8.026;2023-11-21T06:57:33;2.63;;;1.00;;
21206;SDS011;10761;48.532;8.026;2023-11-21T06:59:58;2.33;;;1.23;;
21206;SDS011;10761;48.532;8.026;2023-11-21T07:02:24;5.07;;;1.30;;
21206;SDS011;10761;48.532;8.026;2023-11-21T07:04:50;3.75;;;1.10;;
21206;SDS011;10761;48.532;8.026;2023-11-21T07:07:16;5.60;;;1.50;;
21206;SDS011;10761;48.532;8.026;2023-11-21T07:09:43;3.78;;;1.38;;
21206;SDS011;10761;48.532;8.026;2023-11-21T07:12:08;1.70;;;1.45;;
21206;SDS011;10761;48.532;8.026;2023-11-21T07:14:34;2.83;;;1.58;;
21206;SDS011;10761;48.532;8.026;2023-11-21T07:17:00;3.03;;;1.45;;
21206;SDS011;10761;48.532;8.026;2023-11-21T07:19:25;2.03;;;1.42;;
21206;SDS011;10761;48.532;8.026;2023-11-21T07:21:51;4.13;;;1.42;;
21206;SDS011;10761;48.532;8.026;2023-11-21T07:24:17;1.75;;;1.60;;
21206;SDS011;10761;48.532;8.026;2023-11-21T07:26:42;2.50;;;1.50;;
21206;SDS011;10761;48.532;8.026;2023-11-21T07:29:08;3.53;;;1.80;;
21206;SDS011;10761;48.532;8.026;2023-11-21T07:31:34;4.20;;;1.63;;
21206;SDS011;10761;48.532;8.026;2023-11-21T07:34:00;3.65;;;1.60;;
21206;SDS011;10761;48.532;8.026;2023-11-21T07:36:26;2.17;;;1.50;;
21206;SDS011;10761;48.532;8.026;2023-11-21T07:38:52;2.03;;;1.50;;
21206;SDS011;10761;48.532;8.026;2023-11-21T07:41:18;1.98;;;1.50;;
21206;SDS011;10761;48.532;8.026;2023-11-21T07:43:44;4.70;;;2.38;;
21206;SDS011;10761;48.532;8.026;2023-11-21T07:46:11;3.85;;;1.95;;
21206;SDS011;10761;48.532;8.026;2023-11-21T07:48:40;4.15;;;1.98;;
21206;SDS011;10761;48.532;8.026;2023-11-21T07:51:07;2.80;;;1.88;;
21206;SDS011;10761;48.532;8.026;2023-11-21T07:53:33;2.22;;;1.88;;
21206;SDS011;10761;48.532;8.026;2023-11-21T07:56:06;3.50;;;1.95;;
21206;SDS011;10761;48.532;8.026;2023-11-21T07:58:35;2.95;;;2.17;;
21206;SDS011;10761;48.532;8.026;2023-11-21T08:01:01;3.92;;;2.40;;
21206;SDS011;10761;48.532;8.026;2023-11-21T08:03:28;4.60;;;2.22;;
21206;SDS011;10761;48.532;8.026;2023-11-21T08:05:57;3.55;;;2.53;;
21206;SDS011;10761;48.532;8.026;2023-11-21T08:08:24;4.60;;;2.60;;
21206;SDS011;10761;48.532;8.026;2023-11-21T08:10:50;4.82;;;2.40;;
21206;SDS011;10761;48.532;8.026;2023-11-21T08:13:26;3.50;;;2.50;;
21206;SDS011;10761;48.532;8.026;2023-11-21T08:15:56;2.75;;;2.13;;
21206;SDS011;10761;48.532;8.026;2023-11-21T08:18:26;4.13;;;2.42;;
21206;SDS011;10761;48.532;8.026;2023-11-21T08:20:52;3.15;;;2.22;;
21206;SDS011;10761;48.532;8.026;2023-11-21T08:23:20;6.35;;;2.47;;
21206;SDS011;10761;48.532;8.026;2023-11-21T08:25:50;4.72;;;2.20;;
21206;SDS011;10761;48.532;8.026;2023-11-21T08:28:16;6.47;;;2.13;;
21206;SDS011;10761;48.532;8.026;2023-11-21T08:30:41;3.63;;;2.38;;
21206;SDS011;10761;48.532;8.026;2023-11-21T08:33:07;5.40;;;2.80;;
21206;SDS011;10761;48.532;8.026;2023-11-21T08:35:33;5.35;;;2.88;;
21206;SDS011;10761;48.532;8.026;2023-11-21T08:37:59;5.22;;;3.47;;
21206;SDS011;10761;48.532;8.026;2023-11-21T08:40:25;6.50;;;3.83;;
21206;SDS011;10761;48.532;8.026;2023-11-21T08:42:51;7.38;;;4.03;;
21206;SDS011;10761;48.532;8.026;2023-11-21T08:45:18;7.53;;;3.28;;
21206;SDS011;10761;48.532;8.026;2023-11-21T08:47:44;6.70;;;3.40;;
21206;SDS011;10761;48.532;8.026;2023-11-21T08:50:10;4.50;;;3.17;;
21206;SDS011;10761;48.532;8.026;2023-11-21T08:52:37;6.95;;;3.22;;
21206;SDS011;10761;48.532;8.026;2023-11-21T08:55:04;4.03;;;2.92;;
21206;SDS011;10761;48.532;8.026;2023-11-21T08:57:35;3.42;;;2.88;;
21206;SDS011;10761;48.532;8.026;2023-11-21T09:00:05;4.47;;;3.35;;
21206;SDS011;10761;48.532;8.026;2023-11-21T09:02:35;3.65;;;3.20;;
21206;SDS011;10761;48.532;8.026;2023-11-21T09:05:02;4.00;;;3.60;;
21206;SDS011;10761;48.532;8.026;2023-11-21T09:07:31;6.32;;;3.35;;
21206;SDS011;10761;48.532;8.026;2023-11-21T09:09:57;6.18;;;4.72;;
21206;SDS011;10761;48.532;8.026;2023-11-21T09:12:22;4.22;;;3.20;;
21206;SDS011;10761;48.532;8.026;2023-11-21T09:14:50;4.50;;;3.08;;
21206;SDS011;10761;48.532;8.026;2023-11-21T09:17:16;5.88;;;2.80;;
21206;SDS011;10761;48.532;8.026;2023-11-21T09:19:42;3.72;;;2.40;;
21206;SDS011;10761;48.532;8.026;2023-11-21T09:22:15;4.10;;;2.50;;
21206;SDS011;10761;48.532;8.026;2023-11-21T09:24:41;4.55;;;2.55;;
21206;SDS011;10761;48.532;8.026;2023-11-21T09:27:07;2.80;;;2.60;;
21206;SDS011;10761;48.532;8.026;2023-11-21T09:29:33;5.07;;;2.85;;
21206;SDS011;10761;48.532;8.026;2023-11-21T09:31:58;3.17;;;2.60;;
21206;SDS011;10761;48.532;8.026;2023-11-21T09:34:24;3.38;;;2.38;;
21206;SDS011;10761;48.532;8.026;2023-11-21T09:36:50;2.92;;;2.15;;
21206;SDS011;10761;48.532;8.026;2023-11-21T09:39:16;3.05;;;2.33;;
21206;SDS011;10761;48.532;8.026;2023-11-21T09:44:13;2.75;;;1.92;;
21206;SDS011;10761;48.532;8.026;2023-11-21T09:46:42;2.30;;;2.10;;
21206;SDS011;10761;48.532;8.026;2023-11-21T09:49:09;2.80;;;2.33;;
21206;SDS011;10761;48.532;8.026;2023-11-21T09:51:38;3.55;;;2.25;;
21206;SDS011;10761;48.532;8.026;2023-11-21T09:54:07;2.90;;;2.35;;
21206;SDS011;10761;48.532;8.026;2023-11-21T09:56:37;3.17;;;2.20;;
21206;SDS011;10761;48.532;8.026;2023-11-21T09:59:03;2.65;;;2.33;;
21206;SDS011;10761;48.532;8.026;2023-11-21T10:01:33;4.10;;;2.08;;
21206;SDS011;10761;48.532;8.026;2023-11-21T10:04:04;2.03;;;1.90;;
21206;SDS011;10761;48.532;8.026;2023-11-21T10:06:36;5.00;;;2.30;;
21206;SDS011;10761;48.532;8.026;2023-11-21T10:09:04;2.67;;;2.30;;
21206;SDS011;10761;48.532;8.026;2023-11-21T10:11:36;3.20;;;1.98;;
21206;SDS011;10761;48.532;8.026;2023-11-21T10:14:06;2.40;;;2.13;;
21206;SDS011;10761;48.532;8.026;2023-11-21T10:16:35;2.50;;;2.30;;
21206;SDS011;10761;48.532;8.026;2023-11-21T10:19:04;5.15;;;2.20;;
21206;SDS011;10761;48.532;8.026;2023-11-21T10:21:32;1.70;;;1.60;;
21206;SDS011;10761;48.532;8.026;2023-11-21T10:23:58;1.63;;;1.52;;
21206;SDS011;10761;48.532;8.026;2023-11-21T10:26:24;2.17;;;1.85;;
21206;SDS011;10761;48.532;8.026;2023-11-21T10:28:57;2.50;;;2.10;;
21206;SDS011;10761;48.532;8.026;2023-11-21T10:31:23;2.20;;;2.00;;
21206;SDS011;10761;48.532;8.026;2023-11-21T10:33:49;1.88;;;1.65;;
21206;SDS011;10761;48.532;8.026;2023-11-21T10:36:26;1.83;;;1.70;;
21206;SDS011;10761;48.532;8.026;2023-11-21T10:38:53;2.10;;;1.90;;
21206;SDS011;10761;48.532;8.026;2023-11-21T10:41:19;1.55;;;1.45;;
21206;SDS011;10761;48.532;8.026;2023-11-21T10:43:45;2.13;;;1.80;;
21206;SDS011;10761;48.532;8.026;2023-11-21T10:46:11;2.15;;;1.50;;
21206;SDS011;10761;48.532;8.026;2023-11-21T10:48:38;1.75;;;1.50;;
21206;SDS011;10761;48.532;8.026;2023-11-21T10:51:07;2.13;;;2.00;;
21206;SDS011;10761;48.532;8.026;2023-11-21T10:53:34;2.40;;;2.20;;
21206;SDS011;10761;48.532;8.026;2023-11-21T10:56:05;4.20;;;2.13;;
21206;SDS011;10761;48.532;8.026;2023-11-21T10:58:33;2.28;;;2.08;;
21206;SDS011;10761;48.532;8.026;2023-11-21T11:01:01;3.33;;;2.97;;
21206;SDS011;10761;48.532;8.026;2023-11-21T11:03:31;4.05;;;3.20;;
21206;SDS011;10761;48.532;8.026;2023-11-21T11:05:58;3.20;;;2.90;;
21206;SDS011;10761;48.532;8.026;2023-11-21T11:08:25;3.13;;;2.78;;
21206;SDS011;10761;48.532;8.026;2023-11-21T11:10:52;3.22;;;2.58;;
21206;SDS011;10761;48.532;8.026;2023-11-21T11:13:18;3.47;;;2.90;;
21206;SDS011;10761;48.532;8.026;2023-11-21T11:15:47;3.13;;;2.83;;
21206;SDS011;10761;48.532;8.026;2023-11-21T11:18:13;5.22;;;3.70;;
21206;SDS011;10761;48.532;8.026;2023-11-21T11:20:41;5.07;;;3.50;;
21206;SDS011;10761;48.532;8.026;2023-11-21T11:28:38;1.98;;;1.83;;
21206;SDS011;10761;48.532;8.026;2023-11-21T11:31:18;2.00;;;1.70;;
21206;SDS011;10761;48.532;8.026;2023-11-21T11:37:03;2.67;;;2.20;;
21206;SDS011;10761;48.532;8.026;2023-11-21T11:39:36;2.40;;;1.95;;
21206;SDS011;10761;48.532;8.026;2023-11-21T11:42:06;2.33;;;2.13;;
21206;SDS011;10761;48.532;8.026;2023-11-21T11:47:14;2.78;;;2.28;;
21206;SDS011;10761;48.532;8.026;2023-11-21T11:52:36;2.38;;;2.17;;
21206;SDS011;10761;48.532;8.026;2023-11-21T11:55:05;3.85;;;2.20;;
21206;SDS011;10761;48.532;8.026;2023-11-21T11:57:35;2.50;;;2.10;;
21206;SDS011;10761;48.532;8.026;2023-11-21T12:05:23;1.60;;;1.50;;
21206;SDS011;10761;48.532;8.026;2023-11-21T12:07:49;1.63;;;1.52;;
21206;SDS011;10761;48.532;8.026;2023-11-21T12:10:19;1.92;;;1.35;;
21206;SDS011;10761;48.532;8.026;2023-11-21T12:12:50;3.05;;;1.80;;
21206;SDS011;10761;48.532;8.026;2023-11-21T12:15:18;1.90;;;1.75;;
21206;SDS011;10761;48.532;8.026;2023-11-21T12:17:45;1.67;;;1.58;;
21206;SDS011;10761;48.532;8.026;2023-11-21T12:20:13;2.03;;;1.90;;
21206;SDS011;10761;48.532;8.026;2023-11-21T12:22:44;3.25;;;2.22;;
21206;SDS011;10761;48.532;8.026;2023-11-21T12:25:14;2.90;;;2.28;;
21206;SDS011;10761;48.532;8.026;2023-11-21T12:27:46;3.08;;;2.17;;
21206;SDS011;10761;48.532;8.026;2023-11-21T12:30:21;2.70;;;2.17;;
21206;SDS011;10761;48.532;8.026;2023-11-21T12:32:48;2.75;;;2.20;;
21206;SDS011;10761;48.532;8.026;2023-11-21T12:35:16;4.22;;;2.60;;
21206;SDS011;10761;48.532;8.026;2023-11-21T12:37:45;5.18;;;2.35;;
21206;SDS011;10761;48.532;8.026;2023-11-21T12:40:12;5.00;;;2.45;;
21206;SDS011;10761;48.532;8.026;2023-11-21T12:42:44;3.55;;;2.55;;
21206;SDS011;10761;48.532;8.026;2023-11-21T12:47:46;3.22;;;2.55;;
21206;SDS011;10761;48.532;8.026;2023-11-21T12:50:20;3.00;;;2.67;;
21206;SDS011;10761;48.532;8.026;2023-11-21T12:52:53;3.78;;;2.33;;
21206;SDS011;10761;48.532;8.026;2023-11-21T12:55:23;3.15;;;2.28;;
21206;SDS011;10761;48.532;8.026;2023-11-21T12:57:51;3.30;;;2.75;;
21206;SDS011;10761;48.532;8.026;2023-11-21T13:00:20;4.55;;;2.10;;
21206;SDS011;10761;48.532;8.026;2023-11-21T13:03:07;2.58;;;1.95;;
21206;SDS011;10761;48.532;8.026;2023-11-21T13:05:37;3.20;;;2.22;;
21206;SDS011;10761;48.532;8.026;2023-11-21T13:08:05;3.15;;;2.05;;
21206;SDS011;10761;48.532;8.026;2023-11-21T13:10:37;3.08;;;2.50;;
21206;SDS011;10761;48.532;8.026;2023-11-21T13:13:05;2.63;;;2.10;;
21206;SDS011;10761;48.532;8.026;2023-11-21T13:15:33;4.38;;;2.17;;
21206;SDS011;10761;48.532;8.026;2023-11-21T13:18:01;7.10;;;3.03;;
21206;SDS011;10761;48.532;8.026;2023-11-21T13:20:27;2.78;;;2.40;;
21206;SDS011;10761;48.532;8.026;2023-11-21T13:22:55;1.70;;;1.55;;
21206;SDS011;10761;48.532;8.026;2023-11-21T13:25:26;1.20;;;1.10;;
21206;SDS011;10761;48.532;8.026;2023-11-21T13:27:59;2.95;;;1.30;;
21206;SDS011;10761;48.532;8.026;2023-11-21T13:30:28;1.67;;;1.58;;
21206;SDS011;10761;48.532;8.026;2023-11-21T13:33:03;1.90;;;1.77;;
21206;SDS011;10761;48.532;8.026;2023-11-21T13:35:33;1.90;;;1.80;;
21206;SDS011;10761;48.532;8.026;2023-11-21T13:38:21;2.30;;;2.10;;
21206;SDS011;10761;48.532;8.026;2023-11-21T13:40:53;3.08;;;2.30;;
21206;SDS011;10761;48.532;8.026;2023-11-21T13:43:23;4.13;;;1.88;;
21206;SDS011;10761;48.532;8.026;2023-11-21T13:45:51;2.30;;;2.10;;
21206;SDS011;10761;48.532;8.026;2023-11-21T13:48:26;2.28;;;2.08;;
21206;SDS011;10761;48.532;8.026;2023-11-21T13:51:05;2.50;;;2.28;;
21206;SDS011;10761;48.532;8.026;2023-11-21T13:53:45;2.90;;;2.60;;
21206;SDS011;10761;48.532;8.026;2023-11-21T13:56:14;2.88;;;2.58;;
21206;SDS011;10761;48.532;8.026;2023-11-21T13:58:44;2.75;;;2.40;;
21206;SDS011;10761;48.532;8.026;2023-11-21T14:01:20;2.70;;;2.33;;
21206;SDS011;10761;48.532;8.026;2023-11-21T14:04:10;3.97;;;3.67;;
21206;SDS011;10761;48.532;8.026;2023-11-21T14:06:38;5.03;;;3.97;;
21206;SDS011;10761;48.532;8.026;2023-11-21T14:09:23;3.50;;;3.20;;
21206;SDS011;10761;48.532;8.026;2023-11-21T14:12:00;4.63;;;3.83;;
21206;SDS011;10761;48.532;8.026;2023-11-21T14:14:31;4.75;;;3.85;;
21206;SDS011;10761;48.532;8.026;2023-11-21T14:16:56;3.92;;;3.38;;
21206;SDS011;10761;48.532;8.026;2023-11-21T14:19:23;4.05;;;3.50;;
21206;SDS011;10761;48.532;8.026;2023-11-21T14:21:55;5.00;;;3.97;;
21206;SDS011;10761;48.532;8.026;2023-11-21T14:24:21;4.43;;;4.03;;
21206;SDS011;10761;48.532;8.026;2023-11-21T14:26:48;5.47;;;4.18;;
21206;SDS011;10761;48.532;8.026;2023-11-21T14:29:15;5.53;;;3.97;;
21206;SDS011;10761;48.532;8.026;2023-11-21T14:31:44;5.97;;;4.18;;
21206;SDS011;10761;48.532;8.026;2023-11-21T14:34:11;5.53;;;4.35;;
21206;SDS011;10761;48.532;8.026;2023-11-21T14:36:37;5.03;;;4.53;;
21206;SDS011;10761;48.532;8.026;2023-11-21T14:39:04;4.72;;;4.32;;
21206;SDS011;10761;48.532;8.026;2023-11-21T14:41:36;3.75;;;3.38;;
21206;SDS011;10761;48.532;8.026;2023-11-21T14:44:03;3.72;;;3.20;;
21206;SDS011;10761;48.532;8.026;2023-11-21T14:46:29;3.88;;;3.40;;
21206;SDS011;10761;48.532;8.026;2023-11-21T14:48:56;4.65;;;4.25;;
21206;SDS011;10761;48.532;8.026;2023-11-21T14:51:27;4.95;;;4.20;;
21206;SDS011;10761;48.532;8.026;2023-11-21T14:53:57;5.40;;;4.28;;
21206;SDS011;10761;48.532;8.026;2023-11-21T14:56:31;6.93;;;4.75;;
21206;SDS011;10761;48.532;8.026;2023-11-21T14:58:59;7.63;;;5.30;;
21206;SDS011;10761;48.532;8.026;2023-11-21T15:01:32;10.15;;;4.57;;
21206;SDS011;10761;48.532;8.026;2023-11-21T15:04:09;7.53;;;4.63;;
21206;SDS011;10761;48.532;8.026;2023-11-21T15:07:05;8.98;;;5.30;;
21206;SDS011;10761;48.532;8.026;2023-11-21T15:09:31;7.35;;;4.70;;
21206;SDS011;10761;48.532;8.026;2023-11-21T15:11:57;6.13;;;4.90;;
21206;SDS011;10761;48.532;8.026;2023-11-21T15:14:42;5.97;;;4.85;;
21206;SDS011;10761;48.532;8.026;2023-11-21T15:17:10;5.95;;;4.60;;